WLTO2: East Cache Creek Nr Walters, O

Data processed at Fri May 24 2019 23:50


All information presented herein is the property of the government of the United States of America and may be revised or deleted at any time without prior notice.
Dissemination of this information without the expressed written consent of the Public Affairs Office, Tulsa District U.S. Army Corps of Engineers is strictly prohibited.
These data are gathered electronically and, as presented, have not undergone any form of quality control. These data are not guaranteed to be valid or correct.
Go to home page.
Go to station list.
Go to home page.

Upstream stations:

Downstream station:
Previous Day
Next Day
Current Day
    
SHEF ID:       WLTO2     East Cache Creek near Walters, O
STATION TYPE:  
Regulating: Stage =    15.00, Flow =     1957

               PRECIP PRECIP(A)     STAGE  RIV-FLOW  BAT-LOAD
                   in        in        ft       cfs      volt
              Ccp-Rev   Ccp-Rev   Ccp-Rev   Ccp-Rev   Ccp-Rev
(US/Central)
05/24 00:00      0.00      ----     25.51      4775     12.41
05/24 01:00      0.00      ----     25.04      4618     12.41
05/24 02:00      0.00      ----     24.60      4483     12.33
05/24 03:00      0.00      ----     24.15      4348     12.33
05/24 04:00      0.00      ----     23.69      4211     12.33
05/24 05:00      0.00      ----     23.28      4090     12.33
05/24 06:00      0.00      ----     22.87      3975     12.33
05/24 07:00      0.00      ----     22.47      3865     12.25
05/24 08:00      0.00      ----     22.27      3810     12.41
05/24 09:00      0.00      ----     21.86      3699     12.89
05/24 10:00      0.00      ----     21.48      3596     13.21
05/24 11:00      0.00      ----     21.11      3497     12.97
05/24 12:00      0.00      ----     20.74      3398     12.81
05/24 13:00      0.00      ----     20.38      3303     12.73
05/24 14:00      0.00      ----     20.04      3213     12.65
05/24 15:00      0.00      ----     19.74      3135     12.65
05/24 16:00      0.00      ----     19.42      3051     12.65
05/24 17:00      0.00      ----     19.24      3005     12.65
05/24 18:00      0.00      ----     19.04      2953     12.65
05/24 19:00      0.00      ----     18.87      2909     12.57
05/24 20:00      0.00      ----     18.74      2876     12.49
05/24 21:00      0.00      ----     18.64      2850     12.49
05/24 22:00      0.04      ----     18.53      2822     12.41
05/24 23:00      0.06      ----     18.46      2805     12.41